sensor_id;sensor_type;location;lat;lon;timestamp;temperature;humidity
18408;DHT22;9330;52.210;21.174;2023-04-24T00:01:26;12.30;90.50
18408;DHT22;9330;52.210;21.174;2023-04-24T00:03:54;12.30;90.10
18408;DHT22;9330;52.210;21.174;2023-04-24T00:06:26;12.30;90.90
18408;DHT22;9330;52.210;21.174;2023-04-24T00:08:58;12.30;90.80
18408;DHT22;9330;52.210;21.174;2023-04-24T00:11:25;12.20;92.20
18408;DHT22;9330;52.210;21.174;2023-04-24T00:13:52;12.30;91.30
18408;DHT22;9330;52.210;21.174;2023-04-24T00:16:19;12.20;93.60
18408;DHT22;9330;52.210;21.174;2023-04-24T00:18:46;12.10;93.40
18408;DHT22;9330;52.210;21.174;2023-04-24T00:21:14;12.10;94.90
18408;DHT22;9330;52.210;21.174;2023-04-24T00:23:43;12.10;96.10
18408;DHT22;9330;52.210;21.174;2023-04-24T00:26:10;12.00;97.00
18408;DHT22;9330;52.210;21.174;2023-04-24T00:28:36;12.10;97.80
18408;DHT22;9330;52.210;21.174;2023-04-24T00:31:03;11.90;98.50
18408;DHT22;9330;52.210;21.174;2023-04-24T00:33:31;11.80;98.80
18408;DHT22;9330;52.210;21.174;2023-04-24T00:35:58;11.70;99.10
18408;DHT22;9330;52.210;21.174;2023-04-24T00:38:25;11.70;99.90
18408;DHT22;9330;52.210;21.174;2023-04-24T00:40:53;11.60;99.90
18408;DHT22;9330;52.210;21.174;2023-04-24T00:43:20;11.60;99.90
18408;DHT22;9330;52.210;21.174;2023-04-24T00:45:47;11.60;99.90
18408;DHT22;9330;52.210;21.174;2023-04-24T00:48:14;11.60;99.90
18408;DHT22;9330;52.210;21.174;2023-04-24T00:50:42;11.50;99.90
18408;DHT22;9330;52.210;21.174;2023-04-24T00:53:09;11.50;99.90
18408;DHT22;9330;52.210;21.174;2023-04-24T00:55:36;11.50;99.90
18408;DHT22;9330;52.210;21.174;2023-04-24T00:58:05;11.50;99.90
18408;DHT22;9330;52.210;21.174;2023-04-24T01:00:32;11.50;99.90
18408;DHT22;9330;52.210;21.174;2023-04-24T01:03:01;11.50;99.90
18408;DHT22;9330;52.210;21.174;2023-04-24T01:05:31;11.50;99.90
18408;DHT22;9330;52.210;21.174;2023-04-24T01:07:59;11.40;99.90
18408;DHT22;9330;52.210;21.174;2023-04-24T01:10:29;11.40;99.90
18408;DHT22;9330;52.210;21.174;2023-04-24T01:12:58;11.30;99.90
18408;DHT22;9330;52.210;21.174;2023-04-24T01:15:26;11.40;99.90
18408;DHT22;9330;52.210;21.174;2023-04-24T01:17:53;11.30;99.90
18408;DHT22;9330;52.210;21.174;2023-04-24T01:20:21;11.50;99.90
18408;DHT22;9330;52.210;21.174;2023-04-24T01:22:50;11.30;99.90
18408;DHT22;9330;52.210;21.174;2023-04-24T01:25:17;11.20;99.90
18408;DHT22;9330;52.210;21.174;2023-04-24T01:27:44;11.10;99.90
18408;DHT22;9330;52.210;21.174;2023-04-24T01:30:12;11.10;99.90
18408;DHT22;9330;52.210;21.174;2023-04-24T01:32:40;11.10;99.90
18408;DHT22;9330;52.210;21.174;2023-04-24T01:35:10;11.10;99.90
18408;DHT22;9330;52.210;21.174;2023-04-24T01:37:37;11.00;99.90
18408;DHT22;9330;52.210;21.174;2023-04-24T01:40:07;11.00;99.90
18408;DHT22;9330;52.210;21.174;2023-04-24T01:42:34;10.90;99.90
18408;DHT22;9330;52.210;21.174;2023-04-24T01:45:03;11.00;99.90
18408;DHT22;9330;52.210;21.174;2023-04-24T01:47:31;10.90;99.90
18408;DHT22;9330;52.210;21.174;2023-04-24T01:49:58;10.90;99.90
18408;DHT22;9330;52.210;21.174;2023-04-24T01:52:25;10.80;99.90
18408;DHT22;9330;52.210;21.174;2023-04-24T01:54:52;10.80;99.90
18408;DHT22;9330;52.210;21.174;2023-04-24T01:57:22;10.80;99.90
18408;DHT22;9330;52.210;21.174;2023-04-24T01:59:51;10.70;99.90
18408;DHT22;9330;52.210;21.174;2023-04-24T02:02:18;10.70;99.90
18408;DHT22;9330;52.210;21.174;2023-04-24T02:04:46;10.70;99.90
18408;DHT22;9330;52.210;21.174;2023-04-24T02:07:13;10.60;99.90
18408;DHT22;9330;52.210;21.174;2023-04-24T02:09:40;10.60;99.90
18408;DHT22;9330;52.210;21.174;2023-04-24T02:12:07;10.50;99.90
18408;DHT22;9330;52.210;21.174;2023-04-24T02:14:35;10.60;99.90
18408;DHT22;9330;52.210;21.174;2023-04-24T02:17:03;10.60;99.90
18408;DHT22;9330;52.210;21.174;2023-04-24T02:19:30;10.40;99.90
18408;DHT22;9330;52.210;21.174;2023-04-24T02:21:57;10.30;99.90
18408;DHT22;9330;52.210;21.174;2023-04-24T02:24:24;10.30;99.90
18408;DHT22;9330;52.210;21.174;2023-04-24T02:26:51;10.20;99.90
18408;DHT22;9330;52.210;21.174;2023-04-24T02:29:18;10.20;99.90
18408;DHT22;9330;52.210;21.174;2023-04-24T02:31:46;10.10;99.90
18408;DHT22;9330;52.210;21.174;2023-04-24T02:34:13;10.00;99.90
18408;DHT22;9330;52.210;21.174;2023-04-24T02:36:40;10.10;99.90
18408;DHT22;9330;52.210;21.174;2023-04-24T02:39:07;10.00;99.90
18408;DHT22;9330;52.210;21.174;2023-04-24T02:41:34;10.00;99.90
18408;DHT22;9330;52.210;21.174;2023-04-24T02:44:01;9.90;99.90
18408;DHT22;9330;52.210;21.174;2023-04-24T02:46:27;9.80;99.90
18408;DHT22;9330;52.210;21.174;2023-04-24T02:48:56;9.70;99.90
18408;DHT22;9330;52.210;21.174;2023-04-24T02:51:23;9.70;99.90
18408;DHT22;9330;52.210;21.174;2023-04-24T02:53:50;9.60;99.90
18408;DHT22;9330;52.210;21.174;2023-04-24T02:56:17;9.70;99.90
18408;DHT22;9330;52.210;21.174;2023-04-24T02:58:44;9.60;99.90
18408;DHT22;9330;52.210;21.174;2023-04-24T03:01:11;9.50;99.90
18408;DHT22;9330;52.210;21.174;2023-04-24T03:03:38;9.50;99.90
18408;DHT22;9330;52.210;21.174;2023-04-24T03:06:07;9.50;99.90
18408;DHT22;9330;52.210;21.174;2023-04-24T03:08:35;9.50;99.90
18408;DHT22;9330;52.210;21.174;2023-04-24T03:11:02;9.40;99.90
18408;DHT22;9330;52.210;21.174;2023-04-24T03:13:30;9.40;99.90
18408;DHT22;9330;52.210;21.174;2023-04-24T03:15:56;9.40;99.90
18408;DHT22;9330;52.210;21.174;2023-04-24T03:18:23;9.30;99.90
18408;DHT22;9330;52.210;21.174;2023-04-24T03:20:50;9.40;99.90
18408;DHT22;9330;52.210;21.174;2023-04-24T03:23:19;9.50;99.90
18408;DHT22;9330;52.210;21.174;2023-04-24T03:25:46;9.30;99.90
18408;DHT22;9330;52.210;21.174;2023-04-24T03:28:13;9.30;99.90
18408;DHT22;9330;52.210;21.174;2023-04-24T03:30:40;9.30;99.90
18408;DHT22;9330;52.210;21.174;2023-04-24T03:33:07;9.30;99.90
18408;DHT22;9330;52.210;21.174;2023-04-24T03:35:35;9.10;99.90
18408;DHT22;9330;52.210;21.174;2023-04-24T03:38:02;9.10;99.90
18408;DHT22;9330;52.210;21.174;2023-04-24T03:40:31;9.10;99.90
18408;DHT22;9330;52.210;21.174;2023-04-24T03:42:59;9.00;99.90
18408;DHT22;9330;52.210;21.174;2023-04-24T03:45:26;9.00;99.90
18408;DHT22;9330;52.210;21.174;2023-04-24T03:47:53;9.00;99.90
18408;DHT22;9330;52.210;21.174;2023-04-24T03:50:20;9.00;99.90
18408;DHT22;9330;52.210;21.174;2023-04-24T03:52:46;9.00;99.90
18408;DHT22;9330;52.210;21.174;2023-04-24T03:55:13;9.20;99.90
18408;DHT22;9330;52.210;21.174;2023-04-24T03:57:42;9.00;99.90
18408;DHT22;9330;52.210;21.174;2023-04-24T04:00:10;8.90;99.90
18408;DHT22;9330;52.210;21.174;2023-04-24T04:02:37;9.00;99.90
18408;DHT22;9330;52.210;21.174;2023-04-24T04:05:05;9.10;99.90
18408;DHT22;9330;52.210;21.174;2023-04-24T04:07:31;9.00;99.90
18408;DHT22;9330;52.210;21.174;2023-04-24T04:09:59;9.00;99.90
18408;DHT22;9330;52.210;21.174;2023-04-24T04:12:26;9.00;99.90
18408;DHT22;9330;52.210;21.174;2023-04-24T04:14:54;9.00;99.90
18408;DHT22;9330;52.210;21.174;2023-04-24T04:17:21;9.20;99.90
18408;DHT22;9330;52.210;21.174;2023-04-24T04:19:47;9.10;99.90
18408;DHT22;9330;52.210;21.174;2023-04-24T04:22:14;9.10;99.90
18408;DHT22;9330;52.210;21.174;2023-04-24T04:24:41;9.00;99.90
18408;DHT22;9330;52.210;21.174;2023-04-24T04:27:09;9.10;99.90
18408;DHT22;9330;52.210;21.174;2023-04-24T04:29:37;9.20;99.90
18408;DHT22;9330;52.210;21.174;2023-04-24T04:32:07;9.30;99.90
18408;DHT22;9330;52.210;21.174;2023-04-24T04:34:34;9.40;99.90
18408;DHT22;9330;52.210;21.174;2023-04-24T04:37:03;9.40;99.90
18408;DHT22;9330;52.210;21.174;2023-04-24T04:39:29;9.50;99.90
18408;DHT22;9330;52.210;21.174;2023-04-24T04:41:56;9.50;99.90
18408;DHT22;9330;52.210;21.174;2023-04-24T04:44:24;9.80;99.90
18408;DHT22;9330;52.210;21.174;2023-04-24T04:46:51;9.90;99.90
18408;DHT22;9330;52.210;21.174;2023-04-24T04:49:23;9.70;99.90
18408;DHT22;9330;52.210;21.174;2023-04-24T04:51:50;9.80;99.90
18408;DHT22;9330;52.210;21.174;2023-04-24T04:54:17;9.80;99.90
18408;DHT22;9330;52.210;21.174;2023-04-24T04:56:44;9.80;99.90
18408;DHT22;9330;52.210;21.174;2023-04-24T04:59:11;9.70;99.90
18408;DHT22;9330;52.210;21.174;2023-04-24T05:01:38;9.80;99.90
18408;DHT22;9330;52.210;21.174;2023-04-24T05:04:05;9.80;99.90
18408;DHT22;9330;52.210;21.174;2023-04-24T05:06:33;9.80;99.90
18408;DHT22;9330;52.210;21.174;2023-04-24T05:09:00;9.80;99.90
18408;DHT22;9330;52.210;21.174;2023-04-24T05:23:12;9.90;99.90
18408;DHT22;9330;52.210;21.174;2023-04-24T05:25:39;10.40;99.90
18408;DHT22;9330;52.210;21.174;2023-04-24T05:28:06;10.60;99.90
18408;DHT22;9330;52.210;21.174;2023-04-24T05:30:33;10.70;99.90
18408;DHT22;9330;52.210;21.174;2023-04-24T05:33:00;11.00;99.90
18408;DHT22;9330;52.210;21.174;2023-04-24T05:35:28;11.10;99.90
18408;DHT22;9330;52.210;21.174;2023-04-24T05:37:55;11.20;99.90
18408;DHT22;9330;52.210;21.174;2023-04-24T05:40:23;11.40;99.90
18408;DHT22;9330;52.210;21.174;2023-04-24T05:42:50;11.60;99.90
18408;DHT22;9330;52.210;21.174;2023-04-24T05:45:17;11.90;99.90
18408;DHT22;9330;52.210;21.174;2023-04-24T05:47:44;12.10;99.90
18408;DHT22;9330;52.210;21.174;2023-04-24T05:50:11;12.20;99.90
18408;DHT22;9330;52.210;21.174;2023-04-24T05:52:38;12.40;99.90
18408;DHT22;9330;52.210;21.174;2023-04-24T05:55:05;12.70;99.90
18408;DHT22;9330;52.210;21.174;2023-04-24T05:57:34;12.80;99.90
18408;DHT22;9330;52.210;21.174;2023-04-24T06:00:01;13.00;99.90
18408;DHT22;9330;52.210;21.174;2023-04-24T06:02:29;13.10;99.90
18408;DHT22;9330;52.210;21.174;2023-04-24T06:04:57;13.40;99.90
18408;DHT22;9330;52.210;21.174;2023-04-24T06:07:25;13.50;99.90
18408;DHT22;9330;52.210;21.174;2023-04-24T06:09:52;13.70;99.90
18408;DHT22;9330;52.210;21.174;2023-04-24T06:12:19;14.00;99.90
18408;DHT22;9330;52.210;21.174;2023-04-24T06:14:48;14.10;99.90
18408;DHT22;9330;52.210;21.174;2023-04-24T06:17:15;14.30;99.90
18408;DHT22;9330;52.210;21.174;2023-04-24T06:19:43;14.50;99.90
18408;DHT22;9330;52.210;21.174;2023-04-24T06:22:10;14.80;99.90
18408;DHT22;9330;52.210;21.174;2023-04-24T06:24:37;14.90;99.90
18408;DHT22;9330;52.210;21.174;2023-04-24T06:27:04;15.10;99.90
18408;DHT22;9330;52.210;21.174;2023-04-24T06:29:31;15.30;99.90
18408;DHT22;9330;52.210;21.174;2023-04-24T06:31:59;15.50;99.90
18408;DHT22;9330;52.210;21.174;2023-04-24T06:34:26;15.70;99.90
18408;DHT22;9330;52.210;21.174;2023-04-24T06:36:53;15.80;99.90
18408;DHT22;9330;52.210;21.174;2023-04-24T06:39:20;16.00;99.90
18408;DHT22;9330;52.210;21.174;2023-04-24T06:41:47;16.20;99.90
18408;DHT22;9330;52.210;21.174;2023-04-24T06:44:14;16.20;99.90
18408;DHT22;9330;52.210;21.174;2023-04-24T06:46:42;16.30;99.90
18408;DHT22;9330;52.210;21.174;2023-04-24T06:49:10;16.30;99.90
18408;DHT22;9330;52.210;21.174;2023-04-24T06:51:37;16.30;99.90
18408;DHT22;9330;52.210;21.174;2023-04-24T06:54:04;16.30;99.90
18408;DHT22;9330;52.210;21.174;2023-04-24T06:56:31;16.20;99.90
18408;DHT22;9330;52.210;21.174;2023-04-24T06:58:59;16.20;99.90
18408;DHT22;9330;52.210;21.174;2023-04-24T07:01:26;16.30;99.50
18408;DHT22;9330;52.210;21.174;2023-04-24T07:03:53;16.40;99.90
18408;DHT22;9330;52.210;21.174;2023-04-24T07:06:21;16.70;99.80
18408;DHT22;9330;52.210;21.174;2023-04-24T07:08:49;17.00;98.70
18408;DHT22;9330;52.210;21.174;2023-04-24T07:11:16;17.30;97.60
18408;DHT22;9330;52.210;21.174;2023-04-24T07:13:43;17.50;97.20
18408;DHT22;9330;52.210;21.174;2023-04-24T07:16:10;17.90;99.90
18408;DHT22;9330;52.210;21.174;2023-04-24T07:18:38;18.10;97.30
18408;DHT22;9330;52.210;21.174;2023-04-24T07:21:05;18.20;92.90
18408;DHT22;9330;52.210;21.174;2023-04-24T07:23:34;18.40;91.90
18408;DHT22;9330;52.210;21.174;2023-04-24T07:26:00;18.40;93.20
18408;DHT22;9330;52.210;21.174;2023-04-24T07:28:27;18.60;92.30
18408;DHT22;9330;52.210;21.174;2023-04-24T07:30:56;18.70;86.60
18408;DHT22;9330;52.210;21.174;2023-04-24T07:33:24;18.70;81.90
18408;DHT22;9330;52.210;21.174;2023-04-24T07:35:51;18.80;90.10
18408;DHT22;9330;52.210;21.174;2023-04-24T07:38:18;19.00;82.70
18408;DHT22;9330;52.210;21.174;2023-04-24T07:40:48;19.30;85.30
18408;DHT22;9330;52.210;21.174;2023-04-24T07:43:14;19.50;88.40
18408;DHT22;9330;52.210;21.174;2023-04-24T07:45:41;19.90;81.90
18408;DHT22;9330;52.210;21.174;2023-04-24T07:48:08;20.00;81.30
18408;DHT22;9330;52.210;21.174;2023-04-24T07:50:36;20.20;73.60
18408;DHT22;9330;52.210;21.174;2023-04-24T07:53:02;20.30;77.70
18408;DHT22;9330;52.210;21.174;2023-04-24T07:55:29;20.40;70.00
18408;DHT22;9330;52.210;21.174;2023-04-24T07:57:58;20.60;65.40
18408;DHT22;9330;52.210;21.174;2023-04-24T08:00:25;20.70;64.30
18408;DHT22;9330;52.210;21.174;2023-04-24T08:02:52;20.90;65.20
18408;DHT22;9330;52.210;21.174;2023-04-24T08:05:19;21.00;60.10
18408;DHT22;9330;52.210;21.174;2023-04-24T08:07:46;21.10;63.30
18408;DHT22;9330;52.210;21.174;2023-04-24T08:10:15;21.30;58.10
18408;DHT22;9330;52.210;21.174;2023-04-24T08:12:42;21.30;67.20
18408;DHT22;9330;52.210;21.174;2023-04-24T08:15:11;21.60;58.40
18408;DHT22;9330;52.210;21.174;2023-04-24T08:17:37;21.80;59.20
18408;DHT22;9330;52.210;21.174;2023-04-24T08:20:05;22.00;56.60
18408;DHT22;9330;52.210;21.174;2023-04-24T08:22:35;22.00;56.40
18408;DHT22;9330;52.210;21.174;2023-04-24T08:25:03;22.00;55.70
18408;DHT22;9330;52.210;21.174;2023-04-24T08:27:30;22.20;55.40
18408;DHT22;9330;52.210;21.174;2023-04-24T08:29:57;22.20;54.60
18408;DHT22;9330;52.210;21.174;2023-04-24T08:32:26;22.40;52.20
18408;DHT22;9330;52.210;21.174;2023-04-24T08:34:54;22.50;53.10
18408;DHT22;9330;52.210;21.174;2023-04-24T08:37:22;22.80;52.10
18408;DHT22;9330;52.210;21.174;2023-04-24T08:39:49;22.70;51.00
18408;DHT22;9330;52.210;21.174;2023-04-24T08:42:17;22.90;52.10
18408;DHT22;9330;52.210;21.174;2023-04-24T08:44:44;23.10;54.50
18408;DHT22;9330;52.210;21.174;2023-04-24T08:47:12;23.20;54.00
18408;DHT22;9330;52.210;21.174;2023-04-24T08:49:40;23.40;51.80
18408;DHT22;9330;52.210;21.174;2023-04-24T08:52:07;23.20;47.60
18408;DHT22;9330;52.210;21.174;2023-04-24T08:54:34;23.10;50.30
18408;DHT22;9330;52.210;21.174;2023-04-24T08:57:03;23.10;50.60
18408;DHT22;9330;52.210;21.174;2023-04-24T08:59:30;23.20;49.40
18408;DHT22;9330;52.210;21.174;2023-04-24T09:01:57;23.10;49.80
18408;DHT22;9330;52.210;21.174;2023-04-24T09:04:25;23.00;50.60
18408;DHT22;9330;52.210;21.174;2023-04-24T09:06:55;23.00;48.60
18408;DHT22;9330;52.210;21.174;2023-04-24T09:09:23;22.70;49.70
18408;DHT22;9330;52.210;21.174;2023-04-24T09:11:50;22.70;48.40
18408;DHT22;9330;52.210;21.174;2023-04-24T09:14:19;22.50;51.00
18408;DHT22;9330;52.210;21.174;2023-04-24T09:16:46;22.60;48.70
18408;DHT22;9330;52.210;21.174;2023-04-24T09:19:13;22.10;47.90
18408;DHT22;9330;52.210;21.174;2023-04-24T09:21:40;21.90;48.10
18408;DHT22;9330;52.210;21.174;2023-04-24T09:24:17;21.60;48.50
18408;DHT22;9330;52.210;21.174;2023-04-24T09:26:45;21.60;50.50
18408;DHT22;9330;52.210;21.174;2023-04-24T09:29:14;21.80;48.90
18408;DHT22;9330;52.210;21.174;2023-04-24T09:31:42;22.00;48.70
18408;DHT22;9330;52.210;21.174;2023-04-24T09:34:10;22.10;47.00
18408;DHT22;9330;52.210;21.174;2023-04-24T09:36:38;22.10;45.10
18408;DHT22;9330;52.210;21.174;2023-04-24T09:39:09;22.20;45.60
18408;DHT22;9330;52.210;21.174;2023-04-24T09:41:43;22.20;45.30
18408;DHT22;9330;52.210;21.174;2023-04-24T09:44:12;22.20;45.30
18408;DHT22;9330;52.210;21.174;2023-04-24T09:46:40;22.20;46.00
18408;DHT22;9330;52.210;21.174;2023-04-24T09:49:13;22.30;49.10
18408;DHT22;9330;52.210;21.174;2023-04-24T09:51:40;22.30;46.70
18408;DHT22;9330;52.210;21.174;2023-04-24T09:54:14;22.50;47.20
18408;DHT22;9330;52.210;21.174;2023-04-24T09:56:43;22.40;44.00
18408;DHT22;9330;52.210;21.174;2023-04-24T09:59:11;22.50;47.00
18408;DHT22;9330;52.210;21.174;2023-04-24T10:01:38;22.50;44.60
18408;DHT22;9330;52.210;21.174;2023-04-24T10:04:15;22.50;44.30
18408;DHT22;9330;52.210;21.174;2023-04-24T10:06:43;22.60;45.70
18408;DHT22;9330;52.210;21.174;2023-04-24T10:09:12;22.70;46.60
18408;DHT22;9330;52.210;21.174;2023-04-24T10:11:42;22.70;47.30
18408;DHT22;9330;52.210;21.174;2023-04-24T10:14:13;22.70;50.30
18408;DHT22;9330;52.210;21.174;2023-04-24T10:16:40;22.60;42.90
18408;DHT22;9330;52.210;21.174;2023-04-24T10:19:07;22.60;43.40
18408;DHT22;9330;52.210;21.174;2023-04-24T10:21:35;22.60;46.70
18408;DHT22;9330;52.210;21.174;2023-04-24T10:24:04;22.70;44.20
18408;DHT22;9330;52.210;21.174;2023-04-24T10:26:34;22.70;44.30
18408;DHT22;9330;52.210;21.174;2023-04-24T10:29:05;22.80;45.50
18408;DHT22;9330;52.210;21.174;2023-04-24T10:31:35;22.80;44.40
18408;DHT22;9330;52.210;21.174;2023-04-24T10:34:03;22.80;44.60
18408;DHT22;9330;52.210;21.174;2023-04-24T10:36:31;22.90;44.20
18408;DHT22;9330;52.210;21.174;2023-04-24T10:39:01;22.80;42.80
18408;DHT22;9330;52.210;21.174;2023-04-24T10:41:30;22.70;44.70
18408;DHT22;9330;52.210;21.174;2023-04-24T10:44:09;22.90;44.10
18408;DHT22;9330;52.210;21.174;2023-04-24T10:46:36;22.90;46.70
18408;DHT22;9330;52.210;21.174;2023-04-24T10:49:05;23.00;44.50
18408;DHT22;9330;52.210;21.174;2023-04-24T10:51:45;23.10;44.80
18408;DHT22;9330;52.210;21.174;2023-04-24T10:54:23;23.20;44.20
18408;DHT22;9330;52.210;21.174;2023-04-24T10:56:50;23.30;40.60
18408;DHT22;9330;52.210;21.174;2023-04-24T10:59:25;23.20;41.10
18408;DHT22;9330;52.210;21.174;2023-04-24T11:01:53;23.00;41.10
18408;DHT22;9330;52.210;21.174;2023-04-24T11:04:29;23.00;41.10
18408;DHT22;9330;52.210;21.174;2023-04-24T11:06:57;23.00;42.00
18408;DHT22;9330;52.210;21.174;2023-04-24T11:09:26;23.10;42.00
18408;DHT22;9330;52.210;21.174;2023-04-24T11:12:03;23.30;44.70
18408;DHT22;9330;52.210;21.174;2023-04-24T11:15:00;23.30;42.30
18408;DHT22;9330;52.210;21.174;2023-04-24T11:17:29;23.40;41.40
18408;DHT22;9330;52.210;21.174;2023-04-24T11:20:01;23.40;40.90
18408;DHT22;9330;52.210;21.174;2023-04-24T11:22:31;23.40;41.30
18408;DHT22;9330;52.210;21.174;2023-04-24T11:25:00;23.60;40.40
18408;DHT22;9330;52.210;21.174;2023-04-24T11:27:30;23.80;41.20
18408;DHT22;9330;52.210;21.174;2023-04-24T11:30:03;23.90;39.90
18408;DHT22;9330;52.210;21.174;2023-04-24T11:32:35;24.10;38.80
18408;DHT22;9330;52.210;21.174;2023-04-24T11:35:03;24.00;39.60
18408;DHT22;9330;52.210;21.174;2023-04-24T11:37:34;24.20;39.10
18408;DHT22;9330;52.210;21.174;2023-04-24T11:40:03;24.00;37.60
18408;DHT22;9330;52.210;21.174;2023-04-24T11:42:34;24.10;37.20
18408;DHT22;9330;52.210;21.174;2023-04-24T11:45:07;24.50;37.80
18408;DHT22;9330;52.210;21.174;2023-04-24T11:47:34;24.90;38.80
18408;DHT22;9330;52.210;21.174;2023-04-24T11:50:02;25.30;36.50
18408;DHT22;9330;52.210;21.174;2023-04-24T11:52:30;25.60;37.10
18408;DHT22;9330;52.210;21.174;2023-04-24T11:54:57;25.90;37.60
18408;DHT22;9330;52.210;21.174;2023-04-24T11:57:25;25.90;35.60
18408;DHT22;9330;52.210;21.174;2023-04-24T11:59:54;26.00;37.20
18408;DHT22;9330;52.210;21.174;2023-04-24T12:02:26;26.30;38.50
18408;DHT22;9330;52.210;21.174;2023-04-24T12:04:53;26.50;35.60
18408;DHT22;9330;52.210;21.174;2023-04-24T12:07:21;26.80;38.20
18408;DHT22;9330;52.210;21.174;2023-04-24T12:09:55;27.00;37.90
18408;DHT22;9330;52.210;21.174;2023-04-24T12:12:24;27.10;36.00
18408;DHT22;9330;52.210;21.174;2023-04-24T12:14:54;26.70;36.80
18408;DHT22;9330;52.210;21.174;2023-04-24T12:17:26;26.80;35.00
18408;DHT22;9330;52.210;21.174;2023-04-24T12:19:57;26.90;34.40
18408;DHT22;9330;52.210;21.174;2023-04-24T12:22:25;27.20;36.90
18408;DHT22;9330;52.210;21.174;2023-04-24T12:24:57;27.40;34.50
18408;DHT22;9330;52.210;21.174;2023-04-24T12:27:25;27.40;33.30
18408;DHT22;9330;52.210;21.174;2023-04-24T12:29:52;27.20;35.50
18408;DHT22;9330;52.210;21.174;2023-04-24T12:32:20;27.00;35.90
18408;DHT22;9330;52.210;21.174;2023-04-24T12:34:49;27.10;31.40
18408;DHT22;9330;52.210;21.174;2023-04-24T12:48:47;27.10;31.80
18408;DHT22;9330;52.210;21.174;2023-04-24T12:51:14;28.10;33.40
18408;DHT22;9330;52.210;21.174;2023-04-24T12:53:41;27.90;31.70
18408;DHT22;9330;52.210;21.174;2023-04-24T12:56:08;27.60;31.90
18408;DHT22;9330;52.210;21.174;2023-04-24T12:58:35;26.60;33.10
18408;DHT22;9330;52.210;21.174;2023-04-24T13:01:01;26.10;34.50
18408;DHT22;9330;52.210;21.174;2023-04-24T13:03:28;25.90;34.60
18408;DHT22;9330;52.210;21.174;2023-04-24T13:05:57;25.60;35.10
18408;DHT22;9330;52.210;21.174;2023-04-24T13:08:23;25.00;35.30
18408;DHT22;9330;52.210;21.174;2023-04-24T13:10:50;25.00;36.10
18408;DHT22;9330;52.210;21.174;2023-04-24T13:13:19;24.60;36.00
18408;DHT22;9330;52.210;21.174;2023-04-24T13:15:46;24.70;36.50
18408;DHT22;9330;52.210;21.174;2023-04-24T13:18:13;24.60;36.70
18408;DHT22;9330;52.210;21.174;2023-04-24T13:20:40;24.10;36.80
18408;DHT22;9330;52.210;21.174;2023-04-24T13:23:08;23.70;37.40
18408;DHT22;9330;52.210;21.174;2023-04-24T13:25:36;23.40;36.70
18408;DHT22;9330;52.210;21.174;2023-04-24T13:28:04;23.20;36.90
18408;DHT22;9330;52.210;21.174;2023-04-24T13:30:31;23.00;38.50
18408;DHT22;9330;52.210;21.174;2023-04-24T13:33:00;23.00;38.10
18408;DHT22;9330;52.210;21.174;2023-04-24T13:35:27;22.90;38.40
18408;DHT22;9330;52.210;21.174;2023-04-24T13:37:54;22.90;39.80
18408;DHT22;9330;52.210;21.174;2023-04-24T13:40:23;23.00;39.30
18408;DHT22;9330;52.210;21.174;2023-04-24T13:42:50;23.10;39.10
18408;DHT22;9330;52.210;21.174;2023-04-24T13:45:17;23.20;39.00
18408;DHT22;9330;52.210;21.174;2023-04-24T13:47:44;23.10;39.40
18408;DHT22;9330;52.210;21.174;2023-04-24T13:50:12;22.90;39.10
18408;DHT22;9330;52.210;21.174;2023-04-24T13:52:38;23.10;40.70
18408;DHT22;9330;52.210;21.174;2023-04-24T13:55:06;23.20;40.20
18408;DHT22;9330;52.210;21.174;2023-04-24T13:57:35;23.40;38.60
18408;DHT22;9330;52.210;21.174;2023-04-24T14:00:02;22.90;38.70
18408;DHT22;9330;52.210;21.174;2023-04-24T14:02:29;22.70;37.80
18408;DHT22;9330;52.210;21.174;2023-04-24T14:04:56;22.20;38.20
18408;DHT22;9330;52.210;21.174;2023-04-24T14:07:23;22.00;39.90
18408;DHT22;9330;52.210;21.174;2023-04-24T14:09:50;21.70;38.50
18408;DHT22;9330;52.210;21.174;2023-04-24T14:12:17;21.50;37.70
18408;DHT22;9330;52.210;21.174;2023-04-24T14:14:47;21.30;38.30
18408;DHT22;9330;52.210;21.174;2023-04-24T14:17:13;21.10;38.40
18408;DHT22;9330;52.210;21.174;2023-04-24T14:19:40;21.00;38.60
18408;DHT22;9330;52.210;21.174;2023-04-24T14:22:07;20.90;38.60
18408;DHT22;9330;52.210;21.174;2023-04-24T14:24:34;20.90;38.70
18408;DHT22;9330;52.210;21.174;2023-04-24T14:27:01;20.90;36.70
18408;DHT22;9330;52.210;21.174;2023-04-24T14:29:28;20.90;37.20
18408;DHT22;9330;52.210;21.174;2023-04-24T14:31:56;21.00;37.00
18408;DHT22;9330;52.210;21.174;2023-04-24T14:34:23;21.00;38.30
18408;DHT22;9330;52.210;21.174;2023-04-24T14:36:50;21.00;40.90
18408;DHT22;9330;52.210;21.174;2023-04-24T14:39:17;21.00;41.30
18408;DHT22;9330;52.210;21.174;2023-04-24T14:41:44;21.10;39.00
18408;DHT22;9330;52.210;21.174;2023-04-24T14:44:11;21.10;37.20
18408;DHT22;9330;52.210;21.174;2023-04-24T14:46:38;21.10;37.20
18408;DHT22;9330;52.210;21.174;2023-04-24T14:49:06;21.10;38.80
18408;DHT22;9330;52.210;21.174;2023-04-24T14:51:35;21.20;38.50
18408;DHT22;9330;52.210;21.174;2023-04-24T14:54:02;21.40;40.00
18408;DHT22;9330;52.210;21.174;2023-04-24T14:56:29;21.40;38.80
18408;DHT22;9330;52.210;21.174;2023-04-24T14:58:56;21.40;36.20
18408;DHT22;9330;52.210;21.174;2023-04-24T15:01:22;21.40;37.40
18408;DHT22;9330;52.210;21.174;2023-04-24T15:03:50;21.50;36.60
18408;DHT22;9330;52.210;21.174;2023-04-24T15:06:18;21.40;36.00
18408;DHT22;9330;52.210;21.174;2023-04-24T15:08:46;21.40;36.20
18408;DHT22;9330;52.210;21.174;2023-04-24T15:11:12;21.30;36.30
18408;DHT22;9330;52.210;21.174;2023-04-24T15:13:39;21.30;36.00
18408;DHT22;9330;52.210;21.174;2023-04-24T15:16:07;21.30;37.00
18408;DHT22;9330;52.210;21.174;2023-04-24T15:18:33;21.30;37.20
18408;DHT22;9330;52.210;21.174;2023-04-24T15:21:00;21.30;38.00
18408;DHT22;9330;52.210;21.174;2023-04-24T15:23:29;21.30;38.10
18408;DHT22;9330;52.210;21.174;2023-04-24T15:25:56;21.30;37.60
18408;DHT22;9330;52.210;21.174;2023-04-24T15:28:23;21.30;36.00
18408;DHT22;9330;52.210;21.174;2023-04-24T15:30:51;21.30;37.60
18408;DHT22;9330;52.210;21.174;2023-04-24T15:33:18;21.30;37.80
18408;DHT22;9330;52.210;21.174;2023-04-24T15:35:45;21.30;36.80
18408;DHT22;9330;52.210;21.174;2023-04-24T15:38:14;21.20;37.20
18408;DHT22;9330;52.210;21.174;2023-04-24T15:40:42;21.20;35.70
18408;DHT22;9330;52.210;21.174;2023-04-24T15:43:10;21.20;36.40
18408;DHT22;9330;52.210;21.174;2023-04-24T15:45:37;21.20;35.70
18408;DHT22;9330;52.210;21.174;2023-04-24T15:48:04;21.20;36.30
18408;DHT22;9330;52.210;21.174;2023-04-24T15:50:31;21.20;37.40
18408;DHT22;9330;52.210;21.174;2023-04-24T15:52:58;21.20;36.70
18408;DHT22;9330;52.210;21.174;2023-04-24T15:55:25;21.10;36.60
18408;DHT22;9330;52.210;21.174;2023-04-24T15:57:55;21.10;36.20
18408;DHT22;9330;52.210;21.174;2023-04-24T16:00:22;21.00;34.90